Time;durP1;ratioP1;P1;durP2;ratioP2;P2;SDS_P1;SDS_P2;PMS_P1;PMS_P2;Temp;Humidity;BMP_temperature;BMP_pressure;BME280_temperature;BME280_humidity;BME280_pressure;Samples;Min_cycle;Max_cycle;Signal;HPM_P1;HPM_P2
2022/11/29 00:01:18;;;;;;;9.05;6.15;;;22.20;50.00;;;;;;4993923;28;20076;-60
2022/11/29 00:03:44;;;;;;;8.15;6.10;;;22.20;50.00;;;;;;4993260;28;20116;-60
2022/11/29 00:06:15;;;;;;;10.07;6.57;;;22.20;50.00;;;;;;4994006;28;20129;-60
2022/11/29 00:08:41;;;;;;;9.95;5.85;;;22.20;50.00;;;;;;4994296;28;20088;-60
2022/11/29 00:14:09;;;;;;;10.50;6.10;;;22.10;50.00;;;;;;4992756;28;20092;-60
2022/11/29 00:16:35;;;;;;;9.13;6.10;;;22.10;50.10;;;;;;4992275;28;20038;-60
2022/11/29 00:19:01;;;;;;;7.47;5.55;;;22.10;50.10;;;;;;4995287;28;20041;-60
2022/11/29 00:21:27;;;;;;;9.23;6.65;;;22.10;50.10;;;;;;4993295;28;20046;-60
2022/11/29 00:23:53;;;;;;;10.43;6.18;;;22.00;50.10;;;;;;4992856;28;20030;-60
2022/11/29 00:26:18;;;;;;;7.00;5.53;;;22.00;50.10;;;;;;4992345;28;20105;-60
2022/11/29 00:28:44;;;;;;;8.23;5.93;;;22.00;50.20;;;;;;4993296;28;20049;-60
2022/11/29 00:31:24;;;;;;;8.18;5.68;;;22.00;50.20;;;;;;4993957;28;20457;-60
2022/11/29 00:33:50;;;;;;;8.95;6.28;;;21.90;50.00;;;;;;4992219;28;20381;-60
2022/11/29 00:36:16;;;;;;;8.63;5.75;;;21.90;50.10;;;;;;4994224;28;20034;-60
2022/11/29 00:38:43;;;;;;;8.07;5.82;;;21.90;50.10;;;;;;4991683;28;20046;-60
2022/11/29 00:41:09;;;;;;;8.57;5.70;;;21.90;50.10;;;;;;4993442;28;20069;-60
2022/11/29 00:43:34;;;;;;;9.55;5.53;;;21.90;50.10;;;;;;4991490;28;20085;-60
2022/11/29 00:46:02;;;;;;;7.25;5.25;;;21.90;50.20;;;;;;4995315;28;20474;-60
2022/11/29 00:48:28;;;;;;;8.73;5.57;;;21.90;50.10;;;;;;4993263;28;20505;-60
2022/11/29 00:50:54;;;;;;;7.95;5.55;;;21.80;50.00;;;;;;4992133;28;20121;-60
2022/11/29 00:53:19;;;;;;;8.07;5.35;;;21.80;50.00;;;;;;4992515;28;20548;-60
2022/11/29 00:55:49;;;;;;;7.68;5.38;;;21.80;50.10;;;;;;4991842;28;20033;-60
2022/11/29 00:58:14;;;;;;;7.85;5.78;;;21.80;50.10;;;;;;4993404;28;20042;-60
2022/11/29 01:00:40;;;;;;;8.25;5.38;;;21.80;50.00;;;;;;4991473;28;20634;-60
2022/11/29 01:03:06;;;;;;;7.00;4.88;;;21.80;50.10;;;;;;4991406;28;20041;-60
2022/11/29 01:05:32;;;;;;;7.07;5.05;;;21.80;50.10;;;;;;4992465;28;20133;-60
2022/11/29 01:07:57;;;;;;;6.95;5.28;;;21.80;50.20;;;;;;4993283;28;20073;-60
2022/11/29 01:10:23;;;;;;;5.70;4.47;;;21.70;50.10;;;;;;4991291;28;20042;-60
2022/11/29 01:12:49;;;;;;;6.43;4.53;;;21.70;50.00;;;;;;4991032;28;20038;-60
2022/11/29 01:15:15;;;;;;;6.78;4.70;;;21.70;50.10;;;;;;4992303;28;20099;-60
2022/11/29 01:17:40;;;;;;;5.65;4.32;;;21.70;50.20;;;;;;4991579;28;20568;-60
2022/11/29 01:20:09;;;;;;;6.93;5.30;;;21.70;50.10;;;;;;4991516;28;20046;-60
2022/11/29 01:22:35;;;;;;;7.55;4.85;;;21.70;50.10;;;;;;4992109;28;20940;-60
2022/11/29 01:25:01;;;;;;;5.80;4.68;;;21.70;50.20;;;;;;4993428;28;20057;-60
2022/11/29 01:27:26;;;;;;;6.72;4.32;;;21.60;50.10;;;;;;4991777;28;20041;-60
2022/11/29 01:29:52;;;;;;;6.18;5.07;;;21.60;50.10;;;;;;4989793;28;21027;-60
2022/11/29 01:32:17;;;;;;;4.93;4.15;;;21.60;50.10;;;;;;4991266;28;20038;-59
2022/11/29 01:34:43;;;;;;;6.10;4.65;;;21.60;50.10;;;;;;4990589;28;20200;-60
2022/11/29 01:37:08;;;;;;;5.55;4.53;;;21.60;50.20;;;;;;4992236;28;20076;-60
2022/11/29 01:39:34;;;;;;;4.80;3.83;;;21.60;50.10;;;;;;4991731;28;20049;-58
2022/11/29 01:42:01;;;;;;;5.07;4.57;;;21.50;50.10;;;;;;4990507;28;20125;-60
2022/11/29 01:44:29;;;;;;;5.35;4.63;;;21.50;50.10;;;;;;4991178;28;20505;-60
2022/11/29 01:46:56;;;;;;;5.05;4.07;;;21.50;50.10;;;;;;4992809;28;20469;-60
2022/11/29 01:49:28;;;;;;;4.88;4.25;;;21.50;50.20;;;;;;4990261;28;20038;-60
2022/11/29 01:51:59;;;;;;;5.25;4.25;;;21.50;50.10;;;;;;4991055;28;20050;-60
2022/11/29 01:54:27;;;;;;;4.53;4.00;;;21.50;50.00;;;;;;4993362;28;20149;-60
2022/11/29 01:56:53;;;;;;;5.35;4.32;;;21.40;50.10;;;;;;4991680;28;20054;-60
2022/11/29 01:59:24;;;;;;;4.90;4.00;;;21.40;50.00;;;;;;4989467;28;20048;-60
2022/11/29 02:01:50;;;;;;;;;;;21.40;50.10;;;;;;4991626;28;20573;-60
2022/11/29 02:04:17;;;;;;;4.50;3.85;;;21.40;50.00;;;;;;4994172;28;20000;-60
2022/11/29 02:06:43;;;;;;;5.07;4.28;;;21.40;50.30;;;;;;4996491;28;21247;-60
2022/11/29 02:09:22;;;;;;;5.32;4.07;;;21.40;50.30;;;;;;4993716;28;20490;-60
2022/11/29 02:12:03;;;;;;;4.30;3.90;;;21.40;50.10;;;;;;5001719;28;20486;-60
2022/11/29 02:14:41;;;;;;;4.45;3.70;;;21.40;50.20;;;;;;4994795;28;20100;-59
2022/11/29 02:17:48;;;;;;;3.75;3.45;;;21.30;50.10;;;;;;4992430;28;20034;-60
2022/11/29 02:20:25;;;;;;;4.40;3.47;;;21.30;50.00;;;;;;4994639;28;20080;-60
2022/11/29 02:23:22;;;;;;;4.10;3.70;;;21.30;50.10;;;;;;4995348;28;20128;-60
2022/11/29 02:26:02;;;;;;;3.95;3.63;;;21.30;50.10;;;;;;4993836;28;20453;-60
2022/11/29 02:28:45;;;;;;;3.67;3.37;;;21.30;50.10;;;;;;4994890;28;20049;-59
2022/11/29 02:31:39;;;;;;;4.18;3.35;;;21.20;50.10;;;;;;4994402;28;20154;-59
2022/11/29 02:34:10;;;;;;;4.55;4.13;;;21.20;50.20;;;;;;4994960;28;20045;-60
2022/11/29 02:37:22;;;;;;;3.67;3.38;;;21.20;50.10;;;;;;4993601;28;20448;-60
2022/11/29 02:40:09;;;;;;;6.30;3.30;;;21.20;50.00;;;;;;4991812;28;20536;-60
2022/11/29 02:42:47;;;;;;;3.63;3.33;;;21.20;50.10;;;;;;4990112;28;20133;-59
2022/11/29 02:46:03;;;;;;;3.88;3.38;;;21.10;50.10;;;;;;4994108;28;20050;-59
2022/11/29 02:48:52;;;;;;;3.70;3.22;;;21.10;50.80;;;;;;4989276;28;20038;-60
2022/11/29 02:51:17;;;;;;;4.32;3.72;;;21.10;50.10;;;;;;4980863;28;20379;-60
2022/11/29 02:53:52;;;;;;;3.70;3.17;;;21.10;50.10;;;;;;4994430;28;20046;-60
2022/11/29 02:56:28;;;;;;;3.90;3.53;;;21.10;50.10;;;;;;4993737;28;20485;-59
2022/11/29 02:59:06;;;;;;;4.07;3.60;;;21.10;50.10;;;;;;4995980;28;20134;-60
2022/11/29 03:01:53;;;;;;;4.35;3.38;;;21.10;50.10;;;;;;4995698;28;20049;-60
2022/11/29 03:04:32;;;;;;;4.45;3.60;;;21.10;50.10;;;;;;4994412;28;20125;-60
2022/11/29 03:07:24;;;;;;;3.65;3.35;;;21.10;50.00;;;;;;4995592;28;20042;-60
2022/11/29 03:10:07;;;;;;;3.67;3.30;;;21.10;50.10;;;;;;4992369;28;20121;-60
2022/11/29 03:12:51;;;;;;;4.85;3.45;;;21.00;50.00;;;;;;4994937;28;20132;-59
2022/11/29 03:15:37;;;;;;;3.70;3.30;;;21.00;50.00;;;;;;4992947;28;20046;-59
2022/11/29 03:18:23;;;;;;;3.30;3.00;;;21.00;50.00;;;;;;4992277;28;20129;-59
2022/11/29 03:20:55;;;;;;;3.75;3.40;;;21.00;50.00;;;;;;4994614;28;20050;-60
2022/11/29 03:23:23;;;;;;;3.42;3.10;;;21.00;50.00;;;;;;4993976;28;20057;-60
2022/11/29 03:26:06;;;;;;;3.40;3.10;;;21.00;50.00;;;;;;4993281;28;20049;-59
2022/11/29 03:28:50;;;;;;;3.47;3.15;;;21.00;50.00;;;;;;4993226;28;20718;-60
2022/11/29 03:31:28;;;;;;;3.67;3.38;;;21.00;50.10;;;;;;4995461;28;20044;-60
2022/11/29 03:34:30;;;;;;;3.25;2.72;;;21.00;50.10;;;;;;4994609;28;20034;-59
2022/11/29 03:37:15;;;;;;;3.70;2.97;;;20.90;50.00;;;;;;4994367;28;20038;-59
2022/11/29 03:39:43;;;;;;;3.45;2.97;;;20.90;50.10;;;;;;4993106;28;20655;-60
2022/11/29 03:42:29;;;;;;;3.22;2.92;;;20.90;50.10;;;;;;4994519;28;20073;-60
2022/11/29 03:45:16;;;;;;;4.03;3.47;;;20.90;50.10;;;;;;4994764;28;20042;-60
2022/11/29 03:48:06;;;;;;;3.05;2.85;;;20.90;50.00;;;;;;4991204;28;20425;-60
2022/11/29 03:50:41;;;;;;;3.10;2.88;;;20.90;50.10;;;;;;4995155;28;20121;-60
2022/11/29 03:53:47;;;;;;;3.30;3.00;;;20.80;50.10;;;;;;4992435;28;20388;-59
2022/11/29 03:56:32;;;;;;;3.72;3.03;;;20.80;50.00;;;;;;4992613;28;20081;-60
2022/11/29 03:59:00;;;;;;;3.55;2.85;;;20.80;50.00;;;;;;4994752;28;20842;-60
2022/11/29 04:01:36;;;;;;;3.40;3.10;;;20.80;50.10;;;;;;4994478;28;20704;-59
2022/11/29 04:04:08;;;;;;;3.50;3.20;;;20.80;50.10;;;;;;4991350;28;20042;-60
2022/11/29 04:07:11;;;;;;;3.55;2.92;;;20.80;50.10;;;;;;4994278;28;20466;-60
2022/11/29 04:09:39;;;;;;;3.67;2.95;;;20.80;49.90;;;;;;4992595;28;20046;-60
2022/11/29 04:12:35;;;;;;;3.72;3.33;;;20.70;50.00;;;;;;4992927;28;20038;-60
2022/11/29 04:15:26;;;;;;;3.70;3.25;;;20.80;50.10;;;;;;4991257;28;20140;-59
2022/11/29 04:17:52;;;;;;;;;;;20.70;50.00;;;;;;4992694;28;20288;-59
2022/11/29 04:20:27;;;;;;;3.17;2.88;;;20.70;50.00;;;;;;4999390;28;20672;-59
2022/11/29 04:23:28;;;;;;;3.15;2.85;;;20.70;50.20;;;;;;4994659;28;20038;-60
2022/11/29 04:26:05;;;;;;;3.17;2.88;;;20.70;50.10;;;;;;4994296;28;20046;-59
2022/11/29 04:29:09;;;;;;;3.40;3.10;;;20.70;50.10;;;;;;4992638;28;20140;-59
2022/11/29 04:32:30;;;;;;;2.83;2.53;;;20.70;50.10;;;;;;4992215;28;20049;-59
2022/11/29 04:35:18;;;;;;;3.20;2.90;;;20.70;50.20;;;;;;4964895;28;20046;-60
2022/11/29 04:38:04;;;;;;;2.88;2.67;;;20.60;50.10;;;;;;4992504;28;21298;-59
2022/11/29 04:40:47;;;;;;;3.13;2.83;;;20.60;50.10;;;;;;4992081;28;20112;-60
2022/11/29 04:43:35;;;;;;;2.55;2.35;;;20.60;50.00;;;;;;4994337;28;20054;-59
2022/11/29 04:46:16;;;;;;;3.85;2.80;;;20.60;50.10;;;;;;4992663;28;20046;-60
2022/11/29 04:48:51;;;;;;;3.10;2.80;;;20.60;50.10;;;;;;4995885;28;20042;-60
2022/11/29 04:51:54;;;;;;;3.17;2.88;;;20.60;50.10;;;;;;4990448;28;20069;-60
2022/11/29 04:54:44;;;;;;;3.20;2.90;;;20.60;50.00;;;;;;4992933;28;20042;-59
2022/11/29 04:57:31;;;;;;;3.05;2.75;;;20.60;50.10;;;;;;4993626;28;20046;-59
2022/11/29 05:00:09;;;;;;;2.65;2.45;;;20.60;50.10;;;;;;4991810;28;20119;-59
2022/11/29 05:03:00;;;;;;;3.40;3.10;;;20.60;50.10;;;;;;4992108;28;20082;-60
2022/11/29 05:05:59;;;;;;;2.80;2.60;;;20.50;50.00;;;;;;4993009;28;20050;-60
2022/11/29 05:09:05;;;;;;;2.97;2.72;;;20.50;50.00;;;;;;4994243;28;20057;-60
2022/11/29 05:12:12;;;;;;;2.88;2.67;;;20.50;49.90;;;;;;4989522;28;20100;-59
2022/11/29 05:15:13;;;;;;;2.75;2.55;;;20.50;50.00;;;;;;4997164;28;20038;-59
2022/11/29 05:17:57;;;;;;;3.03;2.65;;;20.50;50.00;;;;;;4997642;28;20077;-60
2022/11/29 05:20:39;;;;;;;3.08;2.88;;;20.50;50.00;;;;;;4992156;28;20086;-59
2022/11/29 05:23:23;;;;;;;2.60;2.40;;;20.50;50.10;;;;;;4990761;28;20042;-60
2022/11/29 05:26:08;;;;;;;3.17;2.88;;;20.40;50.00;;;;;;4992646;28;20038;-60
2022/11/29 05:28:36;;;;;;;2.38;2.20;;;20.50;49.90;;;;;;4992612;28;20049;-61
2022/11/29 05:31:21;;;;;;;2.88;2.63;;;20.40;50.00;;;;;;4992733;28;20038;-58
2022/11/29 05:33:46;;;;;;;2.85;2.65;;;20.50;50.00;;;;;;4992957;28;20066;-61
2022/11/29 05:36:40;;;;;;;2.92;2.63;;;20.40;50.00;;;;;;4990334;28;20375;-59
2022/11/29 05:39:40;;;;;;;2.63;2.42;;;20.40;49.90;;;;;;4992267;28;20045;-60
2022/11/29 05:42:14;;;;;;;2.30;2.10;;;20.40;50.00;;;;;;4989178;28;20072;-60
2022/11/29 05:44:48;;;;;;;2.97;2.70;;;20.40;50.00;;;;;;4992865;28;20347;-61
2022/11/29 05:47:28;;;;;;;3.30;3.00;;;20.40;50.00;;;;;;4991238;28;20049;-60
2022/11/29 05:50:27;;;;;;;2.45;2.25;;;20.40;50.70;;;;;;4992557;28;20120;-60
2022/11/29 05:53:19;;;;;;;3.33;2.38;;;20.40;50.00;;;;;;4988373;28;20065;-60
2022/11/29 05:55:54;;;;;;;2.78;2.47;;;20.40;50.00;;;;;;4992806;28;20192;-60
2022/11/29 05:58:32;;;;;;;3.50;2.63;;;20.40;50.10;;;;;;4990388;28;20100;-61
2022/11/29 06:01:08;;;;;;;2.65;2.45;;;20.40;50.00;;;;;;4990689;28;20031;-60
2022/11/29 06:03:57;;;;;;;3.00;2.80;;;20.40;50.00;;;;;;4990913;28;20042;-60
2022/11/29 06:06:51;;;;;;;2.90;2.67;;;20.40;50.30;;;;;;4991839;28;20671;-61
2022/11/29 06:09:39;;;;;;;3.80;2.38;;;20.40;50.40;;;;;;4991098;28;20093;-60
2022/11/29 06:12:23;;;;;;;5.28;2.60;;;20.30;50.50;;;;;;4990572;28;20506;-61
2022/11/29 06:15:12;;;;;;;3.15;2.40;;;20.30;50.30;;;;;;4990841;28;20038;-61
2022/11/29 06:17:51;;;;;;;5.47;2.13;;;20.30;50.30;;;;;;4990824;28;20087;-61
2022/11/29 06:20:25;;;;;;;2.38;2.17;;;20.30;50.30;;;;;;4990079;28;20092;-60
2022/11/29 06:22:57;;;;;;;2.42;2.22;;;20.30;50.40;;;;;;4992644;28;20038;-61
2022/11/29 06:25:22;;;;;;;3.70;2.42;;;20.30;50.40;;;;;;4992659;28;20074;-61
2022/11/29 06:28:11;;;;;;;3.17;2.47;;;20.30;50.40;;;;;;4992192;28;20498;-60
2022/11/29 06:31:08;;;;;;;4.07;2.70;;;20.30;50.30;;;;;;4993325;28;20030;-61
2022/11/29 06:33:53;;;;;;;4.53;2.58;;;20.30;50.40;;;;;;4991611;28;20073;-60
2022/11/29 06:36:26;;;;;;;2.50;2.30;;;20.30;50.40;;;;;;4992481;28;20053;-60
2022/11/29 06:38:52;;;;;;;3.95;2.55;;;20.30;50.50;;;;;;4989605;28;20081;-60
2022/11/29 06:41:21;;;;;;;4.65;3.15;;;20.30;50.50;;;;;;4993840;28;20471;-61
2022/11/29 06:43:48;;;;;;;2.85;2.65;;;20.30;50.60;;;;;;4992163;28;20042;-61
2022/11/29 06:46:20;;;;;;;2.63;2.40;;;20.30;50.50;;;;;;4992246;28;20108;-61
2022/11/29 06:49:12;;;;;;;3.20;2.78;;;20.30;50.60;;;;;;4992700;28;20038;-61
2022/11/29 06:51:58;;;;;;;2.55;2.35;;;20.30;50.50;;;;;;4993915;28;20071;-60
2022/11/29 06:54:31;;;;;;;2.45;2.25;;;20.30;50.50;;;;;;4994992;28;20157;-60
2022/11/29 06:57:18;;;;;;;2.97;2.70;;;20.20;50.50;;;;;;4993841;28;20049;-60
2022/11/29 07:00:08;;;;;;;3.30;2.60;;;20.20;50.40;;;;;;4995203;28;20053;-59
2022/11/29 07:03:16;;;;;;;3.60;2.47;;;20.20;50.40;;;;;;4993218;28;20520;-61
2022/11/29 07:05:42;;;;;;;3.28;2.97;;;20.20;50.30;;;;;;4995415;28;20046;-60
2022/11/29 07:08:20;;;;;;;2.95;2.63;;;20.20;50.40;;;;;;4994808;28;20038;-60
2022/11/29 07:10:49;;;;;;;4.68;3.67;;;20.20;50.10;;;;;;4995239;28;20045;-62
2022/11/29 07:13:16;;;;;;;3.20;2.90;;;20.10;50.00;;;;;;4993329;28;20061;-59
2022/11/29 07:16:01;;;;;;;5.03;3.05;;;20.10;50.10;;;;;;4995572;28;20050;-60
2022/11/29 07:18:26;;;;;;;3.75;2.63;;;20.10;50.10;;;;;;4994671;28;20053;-61
2022/11/29 07:21:07;;;;;;;3.15;2.85;;;20.10;50.20;;;;;;4993168;28;20042;-61
2022/11/29 07:23:56;;;;;;;3.92;3.28;;;20.10;50.30;;;;;;4992502;28;20050;-61
2022/11/29 07:26:25;;;;;;;4.95;3.22;;;20.10;50.60;;;;;;4991784;28;20132;-61
2022/11/29 07:29:38;;;;;;;5.68;2.90;;;20.50;50.50;;;;;;4995146;28;20413;-60
2022/11/29 07:32:17;;;;;;;3.63;2.63;;;21.40;49.20;;;;;;4972869;28;20141;-60
2022/11/29 07:35:03;;;;;;;5.55;2.80;;;22.10;47.50;;;;;;4994546;28;20688;-61
2022/11/29 07:37:56;;;;;;;2.78;2.17;;;22.80;46.20;;;;;;4992031;28;20042;-60
2022/11/29 07:40:34;;;;;;;9.80;2.58;;;23.20;45.10;;;;;;4985366;28;20056;-61
2022/11/29 07:43:02;;;;;;;3.10;2.30;;;23.30;45.60;;;;;;4992782;28;20134;-61
2022/11/29 07:45:36;;;;;;;4.22;2.35;;;23.30;45.70;;;;;;4994089;28;20137;-61
2022/11/29 07:48:02;;;;;;;2.80;2.47;;;23.20;45.20;;;;;;4992365;28;20072;-61
2022/11/29 07:50:29;;;;;;;4.28;2.05;;;23.10;45.40;;;;;;4992731;28;20038;-61
2022/11/29 07:52:55;;;;;;;4.07;2.50;;;23.10;45.60;;;;;;4992563;28;20498;-61
2022/11/29 07:55:24;;;;;;;5.60;2.72;;;23.00;45.70;;;;;;4992801;28;20060;-61
2022/11/29 07:57:50;;;;;;;3.38;2.95;;;22.90;45.90;;;;;;4993606;28;20117;-60
2022/11/29 08:00:17;;;;;;;3.58;2.70;;;22.70;46.20;;;;;;4990666;28;20038;-61
2022/11/29 08:02:43;;;;;;;2.75;2.15;;;22.60;46.50;;;;;;4991584;28;20054;-61
2022/11/29 08:05:09;;;;;;;3.75;2.35;;;22.50;46.80;;;;;;4992030;28;20038;-62
2022/11/29 08:07:37;;;;;;;7.63;2.67;;;22.60;46.80;;;;;;4993422;28;20030;-61
2022/11/29 08:10:06;;;;;;;6.35;2.17;;;22.50;46.80;;;;;;4990853;28;20677;-62
2022/11/29 08:12:31;;;;;;;4.05;2.30;;;22.50;46.80;;;;;;4994375;28;20044;-63
2022/11/29 08:14:57;;;;;;;2.70;1.98;;;22.50;46.80;;;;;;4993455;28;20042;-60
2022/11/29 08:17:24;;;;;;;3.88;2.63;;;22.50;46.80;;;;;;4991260;28;20057;-61
2022/11/29 08:19:50;;;;;;;5.05;2.80;;;22.40;46.90;;;;;;4991591;28;20034;-61
2022/11/29 08:22:16;;;;;;;3.85;2.20;;;22.40;47.10;;;;;;4992348;28;20034;-61
2022/11/29 08:24:42;;;;;;;5.85;2.03;;;22.40;47.30;;;;;;4994449;28;20041;-61
2022/11/29 08:27:08;;;;;;;5.03;2.58;;;22.40;47.40;;;;;;4991939;28;20038;-61
2022/11/29 08:29:33;;;;;;;3.97;2.70;;;22.40;47.60;;;;;;4994261;28;20116;-61
2022/11/29 08:31:59;;;;;;;2.95;1.92;;;22.40;47.70;;;;;;4991576;28;20036;-63
2022/11/29 08:34:24;;;;;;;4.40;2.50;;;22.40;47.80;;;;;;4993463;28;20046;-60
2022/11/29 08:36:50;;;;;;;3.78;2.30;;;22.40;47.80;;;;;;4992726;28;20599;-61
2022/11/29 08:39:16;;;;;;;5.13;2.58;;;22.40;47.70;;;;;;4991496;28;20189;-62
2022/11/29 08:41:42;;;;;;;5.20;2.88;;;22.40;47.70;;;;;;4991259;28;20050;-61
2022/11/29 08:44:07;;;;;;;5.40;2.80;;;22.40;47.70;;;;;;4994238;28;20549;-60
2022/11/29 08:49:18;;;;;;;5.65;2.30;;;22.40;47.60;;;;;;4991042;28;20298;-62
2022/11/29 08:51:44;;;;;;;4.95;2.90;;;22.40;47.50;;;;;;4993301;28;20095;-60
2022/11/29 08:54:09;;;;;;;4.03;2.53;;;22.40;47.50;;;;;;4991334;28;20042;-60
2022/11/29 08:56:36;;;;;;;4.63;2.63;;;22.40;47.50;;;;;;4988823;28;20161;-61
2022/11/29 08:59:03;;;;;;;6.93;2.40;;;22.40;47.50;;;;;;4991829;28;20454;-60
2022/11/29 09:01:29;;;;;;;5.32;2.92;;;22.40;47.60;;;;;;4992042;28;20056;-61
2022/11/29 09:04:05;;;;;;;3.50;2.40;;;22.40;47.60;;;;;;4990444;28;20351;-60
2022/11/29 09:06:36;;;;;;;5.85;2.70;;;22.40;47.80;;;;;;4994111;28;20050;-60
2022/11/29 09:09:02;;;;;;;7.45;2.63;;;22.50;47.90;;;;;;4989566;28;20030;-60
2022/11/29 09:11:29;;;;;;;9.43;2.50;;;22.50;48.70;;;;;;4990086;28;20505;-61
2022/11/29 09:13:58;;;;;;;5.10;2.83;;;22.50;48.00;;;;;;4990879;28;20030;-61
2022/11/29 09:16:27;;;;;;;4.20;2.50;;;22.50;48.00;;;;;;4986305;28;20553;-61
2022/11/29 09:18:54;;;;;;;5.43;2.70;;;22.50;48.00;;;;;;4989606;28;20050;-61
2022/11/29 09:21:23;;;;;;;6.82;2.42;;;22.50;48.10;;;;;;4989844;28;20114;-60
2022/11/29 09:23:49;;;;;;;8.52;3.10;;;22.50;48.20;;;;;;4988436;28;20038;-60
2022/11/29 09:26:17;;;;;;;6.18;2.70;;;22.50;48.20;;;;;;4989474;28;20085;-60
2022/11/29 09:28:43;;;;;;;4.90;2.55;;;22.50;48.20;;;;;;4990021;28;20383;-60
2022/11/29 09:31:11;;;;;;;4.75;2.60;;;22.50;48.20;;;;;;4989531;28;20052;-60
2022/11/29 09:33:40;;;;;;;4.22;2.40;;;22.50;48.10;;;;;;4990582;28;20034;-61
2022/11/29 09:36:08;;;;;;;3.30;2.30;;;22.50;48.20;;;;;;4990989;28;20042;-60
2022/11/29 09:38:34;;;;;;;5.25;2.63;;;22.50;48.10;;;;;;4990689;28;20076;-60
2022/11/29 09:41:34;;;;;;;5.55;2.72;;;22.50;48.20;;;;;;4991793;28;20123;-61
2022/11/29 09:44:31;;;;;;;3.27;2.60;;;22.50;48.20;;;;;;4992714;28;20789;-60
2022/11/29 09:47:34;;;;;;;3.03;2.42;;;22.50;48.20;;;;;;4990673;28;20137;-60
2022/11/29 09:50:18;;;;;;;3.83;2.25;;;22.60;48.20;;;;;;4990429;28;20046;-60
2022/11/29 09:53:05;;;;;;;3.65;2.45;;;22.60;48.20;;;;;;4989797;28;20038;-60
2022/11/29 09:55:41;;;;;;;4.57;2.50;;;22.60;48.20;;;;;;4990483;28;20049;-61
2022/11/29 09:58:21;;;;;;;2.53;2.15;;;22.60;48.20;;;;;;4990479;28;20053;-60
2022/11/29 10:00:52;;;;;;;3.93;2.40;;;22.60;48.30;;;;;;4993394;28;20041;-61
2022/11/29 10:03:37;;;;;;;4.30;2.45;;;22.60;48.20;;;;;;4991447;28;20034;-60
2022/11/29 10:06:15;;;;;;;4.65;2.38;;;22.60;48.10;;;;;;4991142;28;20056;-61
2022/11/29 10:08:59;;;;;;;3.88;2.75;;;22.60;48.00;;;;;;4992756;28;20038;-61
2022/11/29 10:11:33;;;;;;;4.32;2.38;;;22.60;48.10;;;;;;4991055;28;20060;-60
2022/11/29 10:14:08;;;;;;;3.38;2.40;;;22.60;48.20;;;;;;4991754;28;20034;-60
2022/11/29 10:17:11;;;;;;;4.05;2.28;;;22.60;48.30;;;;;;4990286;28;20548;-61
2022/11/29 10:19:46;;;;;;;3.10;2.20;;;22.60;48.30;;;;;;4975956;28;20045;-60
2022/11/29 10:22:19;;;;;;;3.72;2.30;;;22.60;48.30;;;;;;4991650;28;20053;-61
2022/11/29 10:24:50;;;;;;;4.05;2.22;;;22.60;48.20;;;;;;4990479;28;20693;-60
2022/11/29 10:27:22;;;;;;;3.50;2.20;;;22.70;48.30;;;;;;4996421;28;20042;-60
2022/11/29 10:29:50;;;;;;;3.67;2.30;;;22.70;48.10;;;;;;4992589;28;20041;-60
2022/11/29 10:32:19;;;;;;;3.40;2.28;;;22.70;48.10;;;;;;4994895;28;20116;-60
2022/11/29 10:34:45;;;;;;;3.67;2.38;;;22.70;48.80;;;;;;4995995;28;20121;-61
2022/11/29 10:37:18;;;;;;;3.22;2.30;;;22.70;48.20;;;;;;4994561;28;20046;-61
2022/11/29 10:39:56;;;;;;;3.20;2.28;;;22.70;48.10;;;;;;4994176;28;20477;-60
2022/11/29 10:45:22;;;;;;;3.85;2.13;;;22.70;48.10;;;;;;4995027;28;20165;-60
2022/11/29 10:47:49;;;;;;;4.72;2.22;;;22.70;48.20;;;;;;4994427;28;20474;-61
2022/11/29 10:50:24;;;;;;;4.05;2.25;;;22.70;48.10;;;;;;4992931;28;20065;-61
2022/11/29 10:52:50;;;;;;;3.95;2.42;;;22.70;48.10;;;;;;4994352;28;20739;-61
2022/11/29 10:55:16;;;;;;;5.63;2.22;;;22.70;48.00;;;;;;4992487;28;20044;-61
2022/11/29 10:58:12;;;;;;;2.55;2.00;;;22.70;48.10;;;;;;4994736;28;20170;-60
2022/11/29 11:00:52;;;;;;;3.17;2.13;;;22.70;48.00;;;;;;4996054;28;20042;-61
2022/11/29 11:03:26;;;;;;;;;;;22.70;48.00;;;;;;4996175;28;20046;-60
2022/11/29 11:05:57;;;;;;;4.68;2.35;;;22.60;47.90;;;;;;4995875;28;20439;-61
2022/11/29 11:08:25;;;;;;;4.45;2.25;;;22.60;48.10;;;;;;4995641;28;20049;-61
2022/11/29 11:10:54;;;;;;;3.28;1.60;;;22.70;48.10;;;;;;4995543;28;20085;-60
2022/11/29 11:13:25;;;;;;;2.90;1.83;;;22.70;48.10;;;;;;4995305;28;20049;-60
2022/11/29 11:16:15;;;;;;;4.15;2.20;;;22.70;47.90;;;;;;4994956;28;20045;-61
2022/11/29 11:18:41;;;;;;;3.55;1.80;;;22.80;47.90;;;;;;4993850;28;20052;-61
2022/11/29 11:21:12;;;;;;;3.75;2.47;;;22.70;47.90;;;;;;4992951;28;20109;-61
2022/11/29 11:23:52;;;;;;;3.80;1.92;;;22.80;48.00;;;;;;4993686;28;20046;-60
2022/11/29 11:26:18;;;;;;;3.40;2.08;;;22.80;47.80;;;;;;4991930;28;20073;-61
2022/11/29 11:28:57;;;;;;;3.20;1.77;;;22.70;48.00;;;;;;4995125;28;20133;-60
2022/11/29 11:31:30;;;;;;;7.13;2.17;;;22.50;48.10;;;;;;5025305;28;20116;-60
2022/11/29 11:34:07;;;;;;;2.22;1.35;;;22.20;48.40;;;;;;4995690;28;20417;-60
2022/11/29 11:36:33;;;;;;;4.15;1.73;;;22.00;49.00;;;;;;4992509;28;20058;-60
2022/11/29 11:39:07;;;;;;;10.20;2.03;;;21.80;49.40;;;;;;4994281;28;20037;-61
2022/11/29 11:44:52;;;;;;;2.35;1.90;;;21.50;50.00;;;;;;4993885;28;20074;-60
2022/11/29 11:47:31;;;;;;;2.63;2.00;;;21.40;50.20;;;;;;4995725;28;20069;-60
2022/11/29 11:50:03;;;;;;;4.00;1.90;;;21.30;50.30;;;;;;4992330;28;20520;-60
2022/11/29 11:52:38;;;;;;;2.55;2.10;;;21.20;50.40;;;;;;4995203;28;20501;-61
2022/11/29 11:55:41;;;;;;;3.03;1.90;;;21.20;50.50;;;;;;4994216;28;20095;-60
2022/11/29 11:58:17;;;;;;;4.25;2.15;;;21.10;50.60;;;;;;4992922;28;20385;-60
2022/11/29 12:00:51;;;;;;;3.97;2.13;;;21.00;50.70;;;;;;4993873;28;20050;-60
2022/11/29 12:03:48;;;;;;;2.13;1.73;;;21.00;50.90;;;;;;5001038;28;20045;-60
2022/11/29 12:06:48;;;;;;;3.90;2.03;;;21.00;50.90;;;;;;4993820;28;20109;-60
2022/11/29 12:09:37;;;;;;;1.98;1.67;;;20.90;51.00;;;;;;4994110;28;20046;-60
2022/11/29 12:12:20;;;;;;;3.97;1.60;;;20.90;51.00;;;;;;4990788;28;20034;-59
2022/11/29 12:14:52;;;;;;;3.17;1.85;;;20.80;51.10;;;;;;4990380;28;20034;-60
2022/11/29 12:17:36;;;;;;;2.97;2.08;;;20.80;51.10;;;;;;4990313;28;20505;-61
2022/11/29 12:20:31;;;;;;;4.40;2.00;;;20.80;51.00;;;;;;4990289;28;20067;-61
2022/11/29 12:23:12;;;;;;;4.68;1.92;;;20.70;51.00;;;;;;4993014;28;20046;-58
2022/11/29 12:25:43;;;;;;;3.28;1.70;;;20.70;51.00;;;;;;4992442;28;20050;-59
2022/11/29 12:28:14;;;;;;;3.35;1.85;;;20.70;51.10;;;;;;4990760;28;20037;-60
2022/11/29 12:31:15;;;;;;;3.92;2.30;;;20.70;51.10;;;;;;4991689;28;20405;-60
2022/11/29 12:34:18;;;;;;;4.57;2.10;;;20.60;51.10;;;;;;4992600;28;20046;-61
2022/11/29 12:37:17;;;;;;;2.38;1.60;;;20.60;51.20;;;;;;4991609;28;20058;-61
2022/11/29 12:39:52;;;;;;;1.95;1.45;;;20.60;51.50;;;;;;4992264;28;20108;-60
2022/11/29 12:42:38;;;;;;;5.30;2.20;;;20.60;51.50;;;;;;4992540;28;20060;-61
2022/11/29 12:45:26;;;;;;;2.88;1.83;;;20.60;51.60;;;;;;4990056;28;20045;-60
2022/11/29 12:48:12;;;;;;;3.65;1.80;;;20.50;51.50;;;;;;4989927;28;20185;-61
2022/11/29 12:51:00;;;;;;;2.13;1.65;;;20.60;52.10;;;;;;4988697;28;20050;-61
2022/11/29 12:53:50;;;;;;;4.07;1.65;;;20.60;52.20;;;;;;4989948;28;20042;-59
2022/11/29 12:56:47;;;;;;;3.55;2.00;;;20.60;52.10;;;;;;4988213;28;20050;-60
2022/11/29 12:59:30;;;;;;;3.70;2.08;;;20.50;52.10;;;;;;4993132;28;20838;-61
2022/11/29 13:02:14;;;;;;;3.65;1.65;;;20.50;52.20;;;;;;4992478;28;20042;-60
2022/11/29 13:04:48;;;;;;;3.63;1.92;;;20.50;52.30;;;;;;4992845;28;20042;-61
2022/11/29 13:07:23;;;;;;;3.70;1.85;;;20.40;52.50;;;;;;4993519;28;20382;-60
2022/11/29 13:10:01;;;;;;;2.30;1.70;;;20.40;52.50;;;;;;4993914;28;20513;-60
2022/11/29 13:12:33;;;;;;;3.33;1.85;;;20.40;52.60;;;;;;4991797;28;20567;-60
2022/11/29 13:15:18;;;;;;;3.28;1.50;;;20.40;52.60;;;;;;4993362;28;20119;-60
2022/11/29 13:18:31;;;;;;;4.03;2.05;;;20.40;52.70;;;;;;4991890;28;20045;-60
2022/11/29 13:21:16;;;;;;;2.67;1.70;;;20.40;52.70;;;;;;4990209;28;20046;-60
2022/11/29 13:24:26;;;;;;;2.83;1.90;;;20.30;52.80;;;;;;4990411;28;20044;-61
2022/11/29 13:26:53;;;;;;;2.47;1.90;;;20.40;53.00;;;;;;4992006;28;20046;-61
2022/11/29 13:29:20;;;;;;;1.98;1.77;;;20.30;52.90;;;;;;4993294;28;20064;-60
2022/11/29 13:31:47;;;;;;;3.05;1.70;;;20.30;53.00;;;;;;4991116;28;20038;-61
2022/11/29 13:34:22;;;;;;;3.53;2.20;;;20.30;52.90;;;;;;4991942;28;20070;-60
2022/11/29 13:37:07;;;;;;;3.28;1.70;;;20.40;53.00;;;;;;4990170;28;20050;-60
2022/11/29 13:39:49;;;;;;;4.20;2.10;;;20.40;53.20;;;;;;4990341;28;20053;-61
2022/11/29 13:42:30;;;;;;;2.33;1.80;;;20.40;52.90;;;;;;4989717;28;20046;-61
2022/11/29 13:45:19;;;;;;;3.40;1.95;;;20.30;53.00;;;;;;4991233;28;20519;-61
2022/11/29 13:47:54;;;;;;;4.90;2.17;;;20.40;53.60;;;;;;4988535;28;20136;-62
2022/11/29 13:50:39;;;;;;;3.05;1.60;;;20.30;53.80;;;;;;4989420;28;20046;-61
2022/11/29 13:53:23;;;;;;;3.30;1.60;;;20.40;54.60;;;;;;4990309;28;20037;-61